Time;durP1;ratioP1;P1;durP2;ratioP2;P2;SDS_P1;SDS_P2;PMS_P1;PMS_P2;Temp;Humidity;BMP_temperature;BMP_pressure;BME280_temperature;BME280_humidity;BME280_pressure;Samples;Min_cycle;Max_cycle;Signal;HPM_P1;HPM_P2
2021/12/06 06:51:18;;;;;;;;;;;;;;;1.47;100.00;97571.91;5959889;23;19923;31
2021/12/06 06:53:45;;;;;;;;;;;;;;;1.54;100.00;97569.31;4880765;29;20261;-71
2021/12/06 06:56:12;;;;;;;;;;;;;;;1.55;100.00;97572.88;4882062;29;20426;-71
2021/12/06 06:58:40;;;;;;;;;;;;;;;1.52;100.00;97574.41;4886061;29;20451;-71
2021/12/06 07:01:08;;;;;;;;;;;;;;;1.38;100.00;97576.81;4883008;29;19931;-71
2021/12/06 07:03:35;;;;;;;;;;;;;;;1.32;100.00;97584.53;4884979;29;19938;-71
2021/12/06 07:06:03;;;;;;;;;;;;;;;1.32;100.00;97583.75;4881779;29;19932;-71
2021/12/06 07:08:30;;;;;;;;;;;;;;;1.33;100.00;97591.66;4885766;29;19931;-71
2021/12/06 07:10:58;;;;;;;;;;;;;;;1.28;100.00;97586.41;4879831;29;19931;-70
2021/12/06 07:13:26;;;;;;;;;;;;;;;1.38;100.00;97590.56;4883510;29;20240;-70
2021/12/06 07:15:54;;;;;;;;;;;;;;;1.45;100.00;97604.53;4884647;29;19944;-70
2021/12/06 07:18:21;;;;;;;;;;;;;;;1.58;100.00;97603.28;4878329;29;19944;-76
2021/12/06 07:20:49;;;;;;;;;;;;;;;2.04;100.00;97604.38;4879188;29;19936;-71
2021/12/06 07:23:16;;;;;;;;;;;;;;;2.61;100.00;97601.72;4880494;29;19939;-71
2021/12/06 07:25:43;;;;;;;;;;;;;;;3.21;100.00;97604.84;4881723;29;19935;-71
2021/12/06 07:28:11;;;;;;;;;;;;;;;3.81;100.00;97614.19;4877742;29;19936;-70
2021/12/06 07:30:38;;;;;;;;;;;;;;;4.41;100.00;97623.41;4882139;29;19935;-72
2021/12/06 07:33:05;;;;;;;;;;;;;;;4.49;100.00;97620.38;4881680;29;19932;-71
2021/12/06 07:35:33;;;;;;;;;;;;;;;4.94;100.00;97621.34;4886938;29;20259;-71
2021/12/06 07:38:03;;;;;;;;;;;;;;;5.85;100.00;97621.53;4877323;29;19931;-72
2021/12/06 07:40:31;;;;;;;;;;;;;;;6.75;100.00;97625.31;4881070;29;19979;-72
2021/12/06 07:42:58;;;;;;;;;;;;;;;8.06;100.00;97634.03;4862823;29;20308;-72
2021/12/06 07:45:57;;;;;;;;;;;;;;;9.22;100.00;97645.00;4878896;29;19932;-71
2021/12/06 07:48:24;;;;;;;;;;;;;;;10.91;100.00;97646.56;4877993;29;19976;-70
2021/12/06 07:50:52;;;;;;;;;;;;;;;12.78;100.00;97657.16;4879408;29;19973;-71
2021/12/06 07:53:19;;;;;;;;;;;;;;;14.09;100.00;97649.66;4878050;29;19974;-72
2021/12/06 07:55:47;;;;;;;;;;;;;;;14.50;95.67;97651.94;4881473;29;20334;-72
2021/12/06 07:58:14;;;;;;;;;;;;;;;15.90;89.12;97657.75;4877742;29;19947;-72
2021/12/06 08:00:46;;;;;;;;;;;;;;;16.98;81.41;97663.94;4882197;29;19956;-72
2021/12/06 08:03:14;;;;;;;;;;;;;;;17.99;71.20;97669.97;4881248;29;19953;-72
2021/12/06 08:05:43;;;;;;;;;;;;;;;19.02;64.10;97673.06;4880822;29;20249;-71
2021/12/06 08:08:13;;;;;;;;;;;;;;;19.25;59.70;97674.50;4880551;29;20005;-69
2021/12/06 08:10:45;;;;;;;;;;;;;;;19.89;58.40;97685.88;4880767;29;19947;-70
2021/12/06 08:13:13;;;;;;;;;;;;;;;19.77;53.89;97684.78;4880107;29;20222;-71
2021/12/06 08:15:41;;;;;;;;;;;;;;;19.62;54.58;97683.84;4879339;29;19956;-71
2021/12/06 08:18:09;;;;;;;;;;;;;;;18.35;55.75;97692.00;4879999;29;19960;-72
2021/12/06 08:20:37;;;;;;;;;;;;;;;17.11;59.62;97687.31;4881037;29;19953;-72
2021/12/06 08:23:05;;;;;;;;;;;;;;;16.66;63.69;97686.81;4882746;29;20240;-72
2021/12/06 08:25:33;;;;;;;;;;;;;;;16.12;65.95;97698.94;4883361;29;20042;-72
2021/12/06 08:28:01;;;;;;;;;;;;;;;15.85;64.97;97697.75;4889055;29;19951;-72
2021/12/06 08:30:28;;;;;;;;;;;;;;;15.26;68.88;97709.50;4880782;29;19961;-72
2021/12/06 08:32:57;;;;;;;;;;;;;;;15.29;66.74;97702.94;4876012;29;19950;-72
2021/12/06 08:35:32;;;;;;;;;;;;;;;15.25;68.61;97711.50;4878812;29;19960;-72
2021/12/06 08:37:59;;;;;;;;;;;;;;;13.79;72.34;97713.34;4879334;29;19951;-72
2021/12/06 08:40:28;;;;;;;;;;;;;;;13.13;76.50;97719.06;4879014;29;19953;-72
2021/12/06 08:42:55;;;;;;;;;;;;;;;12.25;81.16;97708.50;4880146;29;19958;-72
2021/12/06 08:45:23;;;;;;;;;;;;;;;11.34;84.73;97714.06;4878957;29;19981;-72
2021/12/06 08:47:50;;;;;;;;;;;;;;;10.36;91.52;97722.19;4878894;29;19957;-72
2021/12/06 08:50:19;;;;;;;;;;;;;;;10.13;97.99;97721.13;4880101;29;19936;-72
2021/12/06 08:52:46;;;;;;;;;;;;;;;9.81;95.73;97730.44;4878382;29;19938;-72
2021/12/06 08:55:14;;;;;;;;;;;;;;;9.47;99.03;97750.94;4879558;29;19931;-72
2021/12/06 08:57:42;;;;;;;;;;;;;;;9.22;100.00;97745.41;4879891;29;20233;-72
2021/12/06 09:00:12;;;;;;;;;;;;;;;8.83;100.00;97748.28;4878784;29;20308;-72
2021/12/06 09:02:40;;;;;;;;;;;;;;;8.82;100.00;97757.06;4876886;29;19928;-72
2021/12/06 09:05:25;;;;;;;;;;;;;;;8.48;100.00;97751.88;4870067;29;19949;-72
2021/12/06 09:07:53;;;;;;;;;;;;;;;8.33;100.00;97753.06;4880126;29;20233;-72
2021/12/06 09:10:20;;;;;;;;;;;;;;;8.25;100.00;97758.97;4879515;29;19932;-72
2021/12/06 09:12:48;;;;;;;;;;;;;;;8.24;100.00;97754.63;4879572;29;19942;-72
2021/12/06 09:15:16;;;;;;;;;;;;;;;8.23;100.00;97758.59;4878973;29;19939;-72
2021/12/06 09:17:47;;;;;;;;;;;;;;;8.17;100.00;97766.53;4878057;29;19932;-72
2021/12/06 09:20:15;;;;;;;;;;;;;;;8.05;100.00;97766.88;4879976;29;20207;-72
2021/12/06 09:22:45;;;;;;;;;;;;;;;8.06;100.00;97771.28;4881114;29;19928;-72
2021/12/06 09:25:13;;;;;;;;;;;;;;;7.90;100.00;97781.97;4880020;29;20384;-72
2021/12/06 09:27:40;;;;;;;;;;;;;;;7.90;100.00;97782.75;4879417;29;19935;-72
2021/12/06 09:30:09;;;;;;;;;;;;;;;7.73;100.00;97785.47;4879977;29;20187;-72
2021/12/06 09:32:37;;;;;;;;;;;;;;;7.89;100.00;97780.38;4879395;29;19932;-72
2021/12/06 09:35:05;;;;;;;;;;;;;;;7.95;100.00;97779.59;4879685;29;19928;-72
2021/12/06 09:37:36;;;;;;;;;;;;;;;8.08;100.00;97782.81;4879187;29;19932;-72
2021/12/06 09:40:04;;;;;;;;;;;;;;;7.96;100.00;97780.41;4879676;29;19939;-72
2021/12/06 09:42:35;;;;;;;;;;;;;;;8.06;100.00;97784.41;4879855;29;19935;-72
2021/12/06 09:45:07;;;;;;;;;;;;;;;8.16;100.00;97790.00;4878955;29;19934;-72
2021/12/06 09:47:36;;;;;;;;;;;;;;;8.10;100.00;97793.56;4877915;29;20223;-72
2021/12/06 09:50:05;;;;;;;;;;;;;;;8.01;100.00;97793.94;4879887;29;20198;-72
2021/12/06 09:52:32;;;;;;;;;;;;;;;8.16;100.00;97792.00;4878876;29;19931;-72
2021/12/06 09:55:00;;;;;;;;;;;;;;;8.17;100.00;97791.59;4879031;29;19932;-72
2021/12/06 09:57:27;;;;;;;;;;;;;;;8.18;100.00;97801.53;4877506;29;20702;-72
2021/12/06 09:59:55;;;;;;;;;;;;;;;8.28;100.00;97803.59;4877369;29;20237;-72
2021/12/06 10:02:22;;;;;;;;;;;;;;;8.41;100.00;97799.22;4879632;29;20182;-72
2021/12/06 10:04:55;;;;;;;;;;;;;;;8.53;100.00;97798.84;4879455;29;20201;-71
2021/12/06 10:07:24;;;;;;;;;;;;;;;8.49;100.00;97794.44;4876602;29;19928;-71
2021/12/06 10:09:51;;;;;;;;;;;;;;;8.61;100.00;97796.09;4878586;29;19962;-71
2021/12/06 10:12:20;;;;;;;;;;;;;;;8.71;100.00;97784.91;4878335;29;19943;-71
2021/12/06 10:14:48;;;;;;;;;;;;;;;8.68;100.00;97787.72;4877052;29;19938;-72
2021/12/06 10:17:17;;;;;;;;;;;;;;;8.63;100.00;97776.97;4878145;29;19939;-72
2021/12/06 10:19:45;;;;;;;;;;;;;;;8.57;100.00;97779.34;4878037;29;19931;-72
2021/12/06 10:22:13;;;;;;;;;;;;;;;8.66;100.00;97779.75;4880820;29;19936;-71
2021/12/06 10:24:42;;;;;;;;;;;;;;;8.72;100.00;97782.94;4882067;29;20296;-71
2021/12/06 10:27:13;;;;;;;;;;;;;;;8.60;100.00;97784.13;4882135;29;19931;-71
2021/12/06 10:29:49;;;;;;;;;;;;;;;8.61;100.00;97777.34;4882194;29;19932;-71
2021/12/06 10:32:18;;;;;;;;;;;;;;;8.74;100.00;97786.91;4882396;29;19932;-71
2021/12/06 10:34:50;;;;;;;;;;;;;;;8.86;100.00;97789.31;4882289;29;20281;-71
2021/12/06 10:37:28;;;;;;;;;;;;;;;8.76;100.00;97783.72;4882182;29;19928;-71
2021/12/06 10:39:55;;;;;;;;;;;;;;;8.92;100.00;97784.13;4881505;29;19931;-72
2021/12/06 10:42:30;;;;;;;;;;;;;;;8.88;100.00;97781.34;4879935;29;20360;-72
2021/12/06 10:45:03;;;;;;;;;;;;;;;8.84;100.00;97782.53;4880810;29;19935;-71
2021/12/06 10:47:30;;;;;;;;;;;;;;;8.83;100.00;97787.31;4879689;29;19935;-71
2021/12/06 10:50:13;;;;;;;;;;;;;;;8.81;100.00;97786.09;4880101;29;19928;-71
2021/12/06 10:52:48;;;;;;;;;;;;;;;8.88;100.00;97791.69;4884031;29;20399;-71
2021/12/06 10:55:16;;;;;;;;;;;;;;;8.83;100.00;97780.94;4880950;29;19932;-72
2021/12/06 10:57:51;;;;;;;;;;;;;;;8.88;100.00;97777.75;4881349;29;19939;-72
2021/12/06 11:00:34;;;;;;;;;;;;;;;8.91;100.00;97774.97;4881450;29;19932;-72
2021/12/06 11:03:02;;;;;;;;;;;;;;;8.90;100.00;97772.59;4880445;29;19932;-71
2021/12/06 11:05:32;;;;;;;;;;;;;;;8.87;100.00;97773.38;4881933;29;19946;-71
2021/12/06 11:08:12;;;;;;;;;;;;;;;8.98;100.00;97768.56;4880054;29;19936;-72
2021/12/06 11:10:47;;;;;;;;;;;;;;;8.73;100.00;97773.38;4881120;29;19938;-72
2021/12/06 11:13:17;;;;;;;;;;;;;;;8.83;100.00;97773.38;4880858;29;19935;-72
2021/12/06 11:15:56;;;;;;;;;;;;;;;8.94;100.00;97776.16;4877950;29;19931;-72
2021/12/06 11:18:30;;;;;;;;;;;;;;;8.97;100.00;97775.38;4879542;29;20216;-71
2021/12/06 11:20:57;;;;;;;;;;;;;;;8.73;100.00;97776.19;4880998;29;19928;-72
2021/12/06 11:23:25;;;;;;;;;;;;;;;8.72;100.00;97775.38;4878763;29;20344;-72
2021/12/06 11:25:55;;;;;;;;;;;;;;;8.51;100.00;97778.13;4880874;29;20298;-72
2021/12/06 11:28:27;;;;;;;;;;;;;;;8.67;100.00;97777.75;4881449;29;19939;-72
2021/12/06 11:31:02;;;;;;;;;;;;;;;8.65;100.00;97772.59;4881231;29;19927;-71
2021/12/06 11:33:32;;;;;;;;;;;;;;;8.64;100.00;97756.25;4881564;29;19936;-71
2021/12/06 11:36:01;;;;;;;;;;;;;;;8.59;100.00;97763.03;4880669;29;19943;-71
2021/12/06 11:38:29;;;;;;;;;;;;;;;8.43;100.00;97766.22;4880567;29;20237;-71
2021/12/06 11:40:58;;;;;;;;;;;;;;;8.61;100.00;97765.44;4881548;29;19927;-72
2021/12/06 11:43:26;;;;;;;;;;;;;;;8.58;100.00;97767.78;4880950;29;19932;-72
2021/12/06 11:45:57;;;;;;;;;;;;;;;8.51;100.00;97780.91;4880280;29;19943;-71
2021/12/06 11:48:26;;;;;;;;;;;;;;;8.54;100.00;97789.28;4878973;29;19935;-71
2021/12/06 11:51:05;;;;;;;;;;;;;;;8.55;100.00;97795.66;4879319;29;19936;-71
2021/12/06 11:53:35;;;;;;;;;;;;;;;8.44;100.00;97792.06;4879433;29;20225;-71
2021/12/06 11:56:05;;;;;;;;;;;;;;;8.51;100.00;97784.50;4880633;29;20221;-71
2021/12/06 11:58:35;;;;;;;;;;;;;;;8.13;100.00;97784.41;4880654;29;19935;-71
2021/12/06 12:01:22;;;;;;;;;;;;;;;8.26;100.00;97778.13;4879713;29;19932;-71
2021/12/06 12:03:51;;;;;;;;;;;;;;;8.28;100.00;97777.72;4880709;29;19927;-72
2021/12/06 12:06:26;;;;;;;;;;;;;;;8.27;100.00;97785.28;4880319;29;20306;-72
2021/12/06 12:09:08;;;;;;;;;;;;;;;8.26;100.00;97778.13;4880700;29;19943;-72
2021/12/06 12:11:56;;;;;;;;;;;;;;;8.22;100.00;97780.06;4880924;29;19927;-72
2021/12/06 12:14:42;;;;;;;;;;;;;;;8.07;100.00;97780.44;4880314;29;19939;-72
2021/12/06 12:17:12;;;;;;;;;;;;;;;8.22;100.00;97777.28;4879289;29;19932;-71
2021/12/06 12:19:40;;;;;;;;;;;;;;;8.23;100.00;97767.75;4879957;29;19939;-71
2021/12/06 12:22:09;;;;;;;;;;;;;;;8.20;100.00;97765.75;4894517;29;19927;-71
2021/12/06 12:24:39;;;;;;;;;;;;;;;8.23;100.00;97776.09;4880590;29;19962;-72
2021/12/06 12:29:59;;;;;;;;;;;;;;;8.18;100.00;97770.91;4880411;29;19927;-72
2021/12/06 12:32:27;;;;;;;;;;;;;;;8.18;100.00;97773.69;4871145;29;20327;-71
2021/12/06 12:34:57;;;;;;;;;;;;;;;8.13;100.00;97767.72;4880643;29;19939;-71
2021/12/06 12:37:24;;;;;;;;;;;;;;;8.08;100.00;97768.91;4880809;29;20285;-71
2021/12/06 12:39:58;;;;;;;;;;;;;;;8.09;100.00;97766.91;4879639;29;20257;-71
2021/12/06 12:42:25;;;;;;;;;;;;;;;8.00;100.00;97767.28;4879751;29;19931;-72
2021/12/06 12:44:54;;;;;;;;;;;;;;;8.08;100.00;97770.88;4874573;29;20843;-72
2021/12/06 12:47:23;;;;;;;;;;;;;;;8.04;100.00;97770.88;4872053;29;19943;-71
2021/12/06 12:49:52;;;;;;;;;;;;;;;8.02;100.00;97766.91;4870972;29;19936;-71
2021/12/06 12:52:34;;;;;;;;;;;;;;;7.98;100.00;97775.22;4874375;29;19935;-72
2021/12/06 12:55:02;;;;;;;;;;;;;;;7.97;100.00;97770.88;4872168;29;19938;-71
2021/12/06 12:57:37;;;;;;;;;;;;;;;7.96;100.00;97769.25;4871115;29;19936;-72
2021/12/06 13:00:05;;;;;;;;;;;;;;;7.95;100.00;97760.09;4875240;29;20352;-71
2021/12/06 13:02:34;;;;;;;;;;;;;;;7.99;100.00;97764.91;4874008;29;19928;-71
2021/12/06 13:05:07;;;;;;;;;;;;;;;7.87;100.00;97769.63;4875496;29;19939;-72
2021/12/06 13:07:38;;;;;;;;;;;;;;;7.86;100.00;97767.25;4873829;29;19965;-71
2021/12/06 13:10:23;;;;;;;;;;;;;;;7.85;100.00;97766.44;4874132;29;20545;-71
2021/12/06 13:13:03;;;;;;;;;;;;;;;7.76;100.00;97770.78;4873216;29;19943;-71
2021/12/06 13:15:58;;;;;;;;;;;;;;;7.57;100.00;97773.88;4874646;29;20233;-71
2021/12/06 13:18:33;;;;;;;;;;;;;;;7.44;100.00;97772.63;4871961;29;19936;-71
2021/12/06 13:21:19;;;;;;;;;;;;;;;7.35;100.00;97769.41;4874310;29;19935;-71
2021/12/06 13:23:47;;;;;;;;;;;;;;;7.26;100.00;97764.97;4875095;29;19932;-71
2021/12/06 13:26:14;;;;;;;;;;;;;;;7.34;100.00;97765.03;4872829;29;19952;-71
2021/12/06 13:29:01;;;;;;;;;;;;;;;7.28;100.00;97765.41;4873715;29;19932;-71
2021/12/06 13:31:30;;;;;;;;;;;;;;;7.19;100.00;97756.59;4873555;29;19936;-71
2021/12/06 13:33:58;;;;;;;;;;;;;;;7.10;100.00;97761.72;4873477;29;20329;-71
2021/12/06 13:36:58;;;;;;;;;;;;;;;6.98;100.00;97759.28;4874587;29;20048;-71
2021/12/06 13:39:37;;;;;;;;;;;;;;;6.86;100.00;97753.22;4838711;29;19958;-71
2021/12/06 13:42:06;;;;;;;;;;;;;;;6.84;100.00;97761.97;4874220;29;19936;-71
2021/12/06 13:44:51;;;;;;;;;;;;;;;6.76;100.00;97756.72;4873953;29;20240;-71
2021/12/06 13:47:20;;;;;;;;;;;;;;;6.78;100.00;97759.91;4873683;29;19942;-71
2021/12/06 13:49:56;;;;;;;;;;;;;;;6.76;100.00;97765.06;4874257;29;19936;-71
2021/12/06 13:52:33;;;;;;;;;;;;;;;6.72;100.00;97762.28;4875402;29;19932;-71
2021/12/06 13:55:02;;;;;;;;;;;;;;;6.75;100.00;97761.47;4875428;29;20412;-71
2021/12/06 13:57:29;;;;;;;;;;;;;;;6.71;100.00;97755.09;4877096;29;19943;-71
2021/12/06 13:59:59;;;;;;;;;;;;;;;6.67;100.00;97759.84;4878101;29;20230;-71
2021/12/06 14:02:37;;;;;;;;;;;;;;;6.51;100.00;97757.34;4877780;29;19943;-71
2021/12/06 14:05:04;;;;;;;;;;;;;;;6.47;100.00;97761.25;4872629;29;19932;-71
2021/12/06 14:07:33;;;;;;;;;;;;;;;6.47;100.00;97758.50;4874690;29;19951;-71
2021/12/06 14:10:01;;;;;;;;;;;;;;;6.40;100.00;97763.97;4875538;29;20651;-71
2021/12/06 14:12:32;;;;;;;;;;;;;;;6.45;100.00;97769.19;4876297;29;19931;-71
2021/12/06 14:15:14;;;;;;;;;;;;;;;6.44;100.00;97771.16;4877231;29;19928;-71
2021/12/06 14:17:41;;;;;;;;;;;;;;;6.42;100.00;97767.16;4889530;29;19939;-71
2021/12/06 14:20:11;;;;;;;;;;;;;;;6.33;100.00;97783.34;4877935;29;19939;-71
2021/12/06 14:22:38;;;;;;;;;;;;;;;6.17;100.00;97775.25;4878081;29;19932;-71
2021/12/06 14:25:06;;;;;;;;;;;;;;;6.10;100.00;97769.66;4877131;29;19936;-71
2021/12/06 14:27:36;;;;;;;;;;;;;;;6.04;100.00;97764.84;4877660;29;19932;-71
2021/12/06 14:30:09;;;;;;;;;;;;;;;6.07;100.00;97770.41;4878323;29;19943;-71
2021/12/06 14:32:36;;;;;;;;;;;;;;;6.08;100.00;97776.75;4878202;29;19942;-71
2021/12/06 14:35:04;;;;;;;;;;;;;;;6.08;100.00;97780.34;4877427;29;19936;-71
2021/12/06 14:37:31;;;;;;;;;;;;;;;5.97;100.00;97784.97;4877018;29;20009;-71
2021/12/06 14:39:59;;;;;;;;;;;;;;;5.90;100.00;97787.66;4877237;29;19939;-71
2021/12/06 14:42:27;;;;;;;;;;;;;;;5.82;100.00;97803.41;4878444;29;19940;-71
2021/12/06 14:44:57;;;;;;;;;;;;;;;5.72;100.00;97801.28;4877492;29;19936;-71
2021/12/06 14:47:30;;;;;;;;;;;;;;;5.66;100.00;97805.59;4876149;29;20359;-71
2021/12/06 14:49:59;;;;;;;;;;;;;;;5.65;100.00;97817.06;4877958;29;19932;-71
2021/12/06 14:52:37;;;;;;;;;;;;;;;5.65;100.00;97822.63;4878169;29;19936;-71
2021/12/06 14:55:41;;;;;;;;;;;;;;;5.61;100.00;97819.78;4878655;29;19935;-71
2021/12/06 14:58:06;;;;;;;;;;;;;;;5.51;100.00;97819.66;4877104;29;19943;-71
2021/12/06 15:00:39;;;;;;;;;;;;;;;5.38;100.00;97821.84;4876885;29;20329;-71
2021/12/06 15:03:07;;;;;;;;;;;;;;;5.30;100.00;97826.53;4877353;29;19943;-71
2021/12/06 15:05:40;;;;;;;;;;;;;;;5.28;100.00;97823.28;4877319;29;20209;-71
2021/12/06 15:08:12;;;;;;;;;;;;;;;5.31;100.00;97821.75;4876430;29;19936;-71
2021/12/06 15:10:44;;;;;;;;;;;;;;;5.35;100.00;97819.84;4878088;29;20217;-71
2021/12/06 15:13:12;;;;;;;;;;;;;;;5.31;100.00;97821.75;4877869;29;19939;-71
2021/12/06 15:15:43;;;;;;;;;;;;;;;5.24;100.00;97825.22;4876027;29;20620;-71
2021/12/06 15:18:14;;;;;;;;;;;;;;;5.15;100.00;97819.16;4876066;29;19936;-70
2021/12/06 15:20:42;;;;;;;;;;;;;;;5.12;100.00;97821.88;4876508;29;19943;-70
2021/12/06 15:23:12;;;;;;;;;;;;;;;5.09;100.00;97822.63;4877934;29;19936;-70
2021/12/06 15:25:39;;;;;;;;;;;;;;;4.93;100.00;97830.31;4877987;29;19995;-70
2021/12/06 15:28:07;;;;;;;;;;;;;;;4.84;100.00;97827.00;4877285;29;19932;-70
2021/12/06 15:30:34;;;;;;;;;;;;;;;4.74;100.00;97825.66;4877634;29;20006;-71
2021/12/06 15:33:05;;;;;;;;;;;;;;;4.63;100.00;97833.78;4877325;29;19943;-71
2021/12/06 15:35:37;;;;;;;;;;;;;;;4.50;100.00;97829.59;4877230;29;20352;-71
2021/12/06 15:38:14;;;;;;;;;;;;;;;4.41;100.00;97834.59;4875524;29;19928;-71
2021/12/06 15:40:42;;;;;;;;;;;;;;;4.37;100.00;97828.19;4876631;29;19936;-71
2021/12/06 15:43:09;;;;;;;;;;;;;;;4.37;100.00;97838.47;4875271;29;19936;-71
2021/12/06 15:45:37;;;;;;;;;;;;;;;4.42;100.00;97838.97;4876248;29;19943;-71
2021/12/06 15:48:06;;;;;;;;;;;;;;;4.39;100.00;97834.16;4875776;29;19927;-71
2021/12/06 15:50:34;;;;;;;;;;;;;;;4.34;100.00;97834.47;4875848;29;19939;-71
2021/12/06 15:53:02;;;;;;;;;;;;;;;4.31;100.00;97835.19;4876133;29;19936;-70
2021/12/06 15:55:33;;;;;;;;;;;;;;;4.30;100.00;97832.81;4877072;29;19932;-71
2021/12/06 15:58:03;;;;;;;;;;;;;;;4.27;100.00;97828.81;4876050;29;19935;-71
2021/12/06 16:00:35;;;;;;;;;;;;;;;4.17;100.00;97825.84;4875665;29;19928;-71
2021/12/06 16:03:03;;;;;;;;;;;;;;;4.14;100.00;97823.78;4875494;29;19932;-71
2021/12/06 16:05:33;;;;;;;;;;;;;;;4.12;100.00;97824.16;4876920;29;19935;-71
2021/12/06 16:08:02;;;;;;;;;;;;;;;4.11;100.00;97830.09;4875240;29;19935;-71
2021/12/06 16:10:34;;;;;;;;;;;;;;;4.12;100.00;97837.19;4872762;29;20205;-71
2021/12/06 16:13:10;;;;;;;;;;;;;;;4.12;100.00;97839.97;4878600;29;19934;-70
2021/12/06 16:15:40;;;;;;;;;;;;;;;4.10;100.00;97840.34;4877494;29;19935;-71
2021/12/06 16:18:10;;;;;;;;;;;;;;;4.07;100.00;97845.78;4874313;29;19942;-71
2021/12/06 16:20:40;;;;;;;;;;;;;;;4.10;100.00;97848.66;4879451;29;20009;-71
2021/12/06 16:23:12;;;;;;;;;;;;;;;4.04;100.00;97844.56;4876273;29;19935;-71
2021/12/06 16:25:50;;;;;;;;;;;;;;;4.04;100.00;97846.53;4874984;29;20317;-71
2021/12/06 16:28:18;;;;;;;;;;;;;;;4.03;100.00;97851.28;4875546;29;19936;-71
2021/12/06 16:30:46;;;;;;;;;;;;;;;4.06;100.00;97850.53;4876490;29;19936;-71
2021/12/06 16:33:33;;;;;;;;;;;;;;;4.03;100.00;97848.50;4876044;29;19939;-71
2021/12/06 16:36:14;;;;;;;;;;;;;;;3.98;100.00;97854.34;4875825;29;20356;-71
2021/12/06 16:38:41;;;;;;;;;;;;;;;3.92;100.00;97864.09;4874718;29;19931;-71
2021/12/06 16:41:16;;;;;;;;;;;;;;;3.80;100.00;97872.53;4875561;29;19939;-71
2021/12/06 16:43:45;;;;;;;;;;;;;;;3.64;100.00;97874.56;4875141;29;20412;-71
2021/12/06 16:46:13;;;;;;;;;;;;;;;3.56;100.00;97873.63;4873854;29;20576;-71
2021/12/06 16:48:44;;;;;;;;;;;;;;;3.55;100.00;97871.19;4874125;29;19943;-71
2021/12/06 16:51:24;;;;;;;;;;;;;;;3.49;100.00;97876.22;4875406;29;19936;-71
2021/12/06 16:53:52;;;;;;;;;;;;;;;3.43;100.00;97874.91;4872972;29;19932;-71
2021/12/06 16:56:19;;;;;;;;;;;;;;;3.36;100.00;97879.47;4876059;29;19931;-71
2021/12/06 16:58:49;;;;;;;;;;;;;;;3.38;100.00;97877.13;4873929;29;20317;-71
2021/12/06 17:01:17;;;;;;;;;;;;;;;3.39;100.00;97876.00;4873770;29;20317;-70
2021/12/06 17:03:48;;;;;;;;;;;;;;;3.40;100.00;97883.13;4874432;29;19936;-71
2021/12/06 17:06:21;;;;;;;;;;;;;;;3.49;100.00;97887.28;4872589;29;19942;-71
2021/12/06 17:09:00;;;;;;;;;;;;;;;3.56;100.00;97878.34;4874659;29;19942;-71
2021/12/06 17:11:28;;;;;;;;;;;;;;;3.60;100.00;97877.25;4875614;29;19936;-71
2021/12/06 17:14:09;;;;;;;;;;;;;;;3.59;100.00;97870.13;4875927;29;20751;-71
2021/12/06 17:16:39;;;;;;;;;;;;;;;3.65;100.00;97873.41;4873496;29;19931;-71
2021/12/06 17:19:08;;;;;;;;;;;;;;;3.66;100.00;97875.00;4872633;29;20221;-71
2021/12/06 17:21:38;;;;;;;;;;;;;;;3.76;100.00;97874.44;4874992;29;19951;-71
2021/12/06 17:24:06;;;;;;;;;;;;;;;3.77;100.00;97876.81;4873756;29;19932;-71
2021/12/06 17:26:33;;;;;;;;;;;;;;;3.80;100.00;97878.88;4888405;29;19943;-71
2021/12/06 17:29:04;;;;;;;;;;;;;;;3.80;100.00;97880.81;4874127;29;19932;-71
2021/12/06 17:31:33;;;;;;;;;;;;;;;3.80;100.00;97886.34;4876918;29;19935;-71
2021/12/06 17:34:05;;;;;;;;;;;;;;;3.79;100.00;97890.31;4877489;29;19932;-71
2021/12/06 17:36:38;;;;;;;;;;;;;;;3.84;100.00;97893.56;4878380;29;19936;-71
2021/12/06 17:39:10;;;;;;;;;;;;;;;3.83;100.00;97897.50;4876617;29;19935;-71
2021/12/06 17:41:39;;;;;;;;;;;;;;;3.82;100.00;97895.91;4877950;29;19934;-70
2021/12/06 17:44:08;;;;;;;;;;;;;;;3.86;100.00;97901.50;4878117;29;19938;-71
2021/12/06 17:46:35;;;;;;;;;;;;;;;3.82;100.00;97895.91;4875676;29;19943;-71
2021/12/06 17:49:04;;;;;;;;;;;;;;;3.79;100.00;97901.38;4875245;29;19936;-71
2021/12/06 17:51:34;;;;;;;;;;;;;;;3.78;100.00;97902.53;4876933;29;19939;-70
2021/12/06 17:54:02;;;;;;;;;;;;;;;3.72;100.00;97907.53;4878371;29;19958;-70
2021/12/06 17:56:30;;;;;;;;;;;;;;;3.75;100.00;97901.28;4877529;29;19928;-70
2021/12/06 17:58:58;;;;;;;;;;;;;;;3.77;100.00;97892.59;4877108;29;19943;-70
2021/12/06 18:01:26;;;;;;;;;;;;;;;3.81;100.00;97899.84;4878248;29;20714;-70
2021/12/06 18:04:03;;;;;;;;;;;;;;;3.75;100.00;97897.69;4877986;29;19932;-70
2021/12/06 18:06:30;;;;;;;;;;;;;;;3.77;100.00;97909.19;4878280;29;20006;-70
2021/12/06 18:09:01;;;;;;;;;;;;;;;3.79;100.00;97912.44;4878029;29;19952;-71
2021/12/06 18:11:29;;;;;;;;;;;;;;;3.83;100.00;97916.06;4876936;29;19935;-71
2021/12/06 18:13:57;;;;;;;;;;;;;;;3.82;100.00;97912.47;4878388;29;19936;-70
2021/12/06 18:16:24;;;;;;;;;;;;;;;3.86;100.00;97915.34;4875739;29;19932;-70
2021/12/06 18:18:51;;;;;;;;;;;;;;;3.86;100.00;97923.63;4876612;29;20769;-70
2021/12/06 18:21:19;;;;;;;;;;;;;;;3.81;100.00;97910.09;4878517;29;19934;-70
2021/12/06 18:23:46;;;;;;;;;;;;;;;3.80;100.00;97911.25;4879136;29;19947;-70
2021/12/06 18:26:14;;;;;;;;;;;;;;;3.79;100.00;97917.97;4877505;29;19938;-70
2021/12/06 18:28:41;;;;;;;;;;;;;;;3.79;100.00;97899.38;4877673;29;19936;-70
2021/12/06 18:31:09;;;;;;;;;;;;;;;3.78;100.00;97910.81;4879248;29;20229;-71
2021/12/06 18:33:41;;;;;;;;;;;;;;;3.75;100.00;97908.75;4878359;29;20309;-71
2021/12/06 18:36:13;;;;;;;;;;;;;;;3.77;100.00;97903.66;4876371;29;20183;-71
2021/12/06 18:38:46;;;;;;;;;;;;;;;3.77;100.00;97906.44;4876883;29;19936;-70
2021/12/06 18:41:15;;;;;;;;;;;;;;;3.70;100.00;97906.28;4875376;29;19982;-70
2021/12/06 18:46:14;;;;;;;;;;;;;;;3.69;100.00;97911.00;4876391;29;19928;-70
2021/12/06 18:48:44;;;;;;;;;;;;;;;3.72;100.00;97902.00;4875747;29;19936;-70
2021/12/06 18:51:12;;;;;;;;;;;;;;;3.75;100.00;97908.75;4876434;29;19943;-70
2021/12/06 18:53:41;;;;;;;;;;;;;;;3.83;100.00;97902.22;4876950;29;19928;-70
2021/12/06 18:56:08;;;;;;;;;;;;;;;3.90;100.00;97911.47;4875974;29;20325;-70
2021/12/06 18:58:36;;;;;;;;;;;;;;;3.91;98.88;97917.81;4875541;29;19932;-71
2021/12/06 19:01:06;;;;;;;;;;;;;;;3.95;98.74;97907.63;4878330;29;19936;-70
2021/12/06 19:03:33;;;;;;;;;;;;;;;3.99;97.48;97906.53;4872676;29;20006;-70
2021/12/06 19:06:02;;;;;;;;;;;;;;;4.01;97.76;97917.22;4878921;29;19932;-70
2021/12/06 19:08:29;;;;;;;;;;;;;;;4.02;95.61;97910.53;4877838;29;20162;-70
2021/12/06 19:10:58;;;;;;;;;;;;;;;4.07;90.76;97907.47;4875095;29;19936;-71
2021/12/06 19:13:27;;;;;;;;;;;;;;;4.11;90.70;97902.03;4874441;29;20327;-71
2021/12/06 19:15:56;;;;;;;;;;;;;;;4.10;90.88;97911.47;4875116;29;19936;-71
2021/12/06 19:18:23;;;;;;;;;;;;;;;3.93;100.00;97913.53;4873959;29;20422;-71
2021/12/06 19:20:51;;;;;;;;;;;;;;;3.74;100.00;97918.25;4876279;29;19932;-71
2021/12/06 19:23:21;;;;;;;;;;;;;;;3.49;100.00;97908.59;4890948;29;19932;-70
2021/12/06 19:25:51;;;;;;;;;;;;;;;3.28;100.00;97915.22;4877351;29;19936;-70
2021/12/06 19:28:20;;;;;;;;;;;;;;;3.17;100.00;97913.38;4876922;29;19936;-70
2021/12/06 19:30:49;;;;;;;;;;;;;;;3.03;100.00;97902.00;4877498;29;19934;-70
2021/12/06 19:33:16;;;;;;;;;;;;;;;2.94;100.00;97899.41;4877144;29;19939;-70
2021/12/06 19:35:45;;;;;;;;;;;;;;;2.91;100.00;97900.13;4877886;29;20597;-70
2021/12/06 19:38:13;;;;;;;;;;;;;;;2.90;100.00;97908.78;4876974;29;19936;-70
2021/12/06 19:40:42;;;;;;;;;;;;;;;2.83;100.00;97914.94;4877464;29;19936;-71
2021/12/06 19:43:11;;;;;;;;;;;;;;;2.85;100.00;97920.09;4876625;29;19939;-70
2021/12/06 19:45:42;;;;;;;;;;;;;;;2.90;100.00;97912.34;4875988;29;19959;-70
2021/12/06 19:48:09;;;;;;;;;;;;;;;2.80;100.00;97912.88;4875160;29;19932;-70
2021/12/06 19:50:37;;;;;;;;;;;;;;;2.70;100.00;97907.88;4876439;29;19936;-71
2021/12/06 19:53:06;;;;;;;;;;;;;;;2.68;100.00;97901.94;4875935;29;20045;-76
2021/12/06 19:55:35;;;;;;;;;;;;;;;2.63;100.00;97905.75;4876130;29;20341;-76
2021/12/06 19:58:07;;;;;;;;;;;;;;;2.69;100.00;97911.00;4876001;29;19932;-77
2021/12/06 20:00:35;;;;;;;;;;;;;;;2.71;100.00;97911.47;4876994;29;19936;-74